Time;durP1;ratioP1;P1;durP2;ratioP2;P2;SDS_P1;SDS_P2;PMS_P1;PMS_P2;Temp;Humidity;BMP_temperature;BMP_pressure;BME280_temperature;BME280_humidity;BME280_pressure;Samples;Min_cycle;Max_cycle;Signal;HPM_P1;HPM_P2
2021/05/05 00:01:23;;;;;;;5.00;2.10;;;;;;;11.50;58.62;94648.16;5015430;28;20503;-49
2021/05/05 00:03:50;;;;;;;3.85;2.22;;;;;;;11.58;58.51;94636.28;5015713;28;20058;-49
2021/05/05 00:06:17;;;;;;;4.53;2.10;;;;;;;11.49;58.94;94637.72;5023572;28;20100;-49
2021/05/05 00:08:44;;;;;;;4.43;2.80;;;;;;;11.52;58.31;94636.97;5035057;28;20119;-46
2021/05/05 00:11:11;;;;;;;2.85;2.42;;;;;;;11.51;58.50;94625.34;5033698;28;20057;-47
2021/05/05 00:13:38;;;;;;;4.70;2.40;;;;;;;11.59;58.54;94626.22;5033674;28;20109;-46
2021/05/05 00:16:06;;;;;;;3.20;2.60;;;;;;;11.60;58.21;94625.84;5013602;28;20057;-50
2021/05/05 00:18:33;;;;;;;4.93;2.45;;;;;;;11.53;58.42;94614.91;5014719;28;20052;-49
2021/05/05 00:21:00;;;;;;;2.88;2.10;;;;;;;11.53;58.46;94625.75;5015552;28;20140;-47
2021/05/05 00:23:26;;;;;;;3.95;2.30;;;;;;;11.57;58.39;94613.03;5014224;28;20046;-47
2021/05/05 00:25:53;;;;;;;3.60;2.38;;;;;;;11.56;58.20;94613.41;5014412;28;20068;-46
2021/05/05 00:28:20;;;;;;;3.70;2.25;;;;;;;11.52;58.39;94607.94;5026032;28;20057;-51
2021/05/05 00:30:47;;;;;;;3.78;2.50;;;;;;;11.50;58.35;94612.16;5034754;28;20058;-48
2021/05/05 00:33:13;;;;;;;2.67;2.00;;;;;;;11.55;58.45;94612.63;5034614;28;20049;-46
2021/05/05 00:35:40;;;;;;;3.38;2.40;;;;;;;11.48;58.45;94609.84;5033498;28;20061;-49
2021/05/05 00:38:09;;;;;;;6.32;2.50;;;;;;;11.49;58.63;94613.34;5014264;28;20054;-48
2021/05/05 00:40:36;;;;;;;3.10;2.38;;;;;;;11.37;58.79;94604.28;5014969;28;20050;-49
2021/05/05 00:43:03;;;;;;;3.10;2.25;;;;;;;11.38;58.85;94602.38;5014545;28;20414;-49
2021/05/05 00:45:30;;;;;;;3.33;2.40;;;;;;;11.36;59.00;94591.91;5017412;28;20050;-46
2021/05/05 00:47:56;;;;;;;3.28;2.55;;;;;;;11.37;59.08;94590.75;5014284;28;20050;-46
2021/05/05 00:50:23;;;;;;;3.10;2.30;;;;;;;11.37;58.90;94596.16;5015023;28;20049;-46
2021/05/05 00:52:50;;;;;;;3.88;2.25;;;;;;;11.67;58.57;94589.94;5014372;28;20596;-47
2021/05/05 00:55:16;;;;;;;5.78;2.38;;;;;;;11.52;58.63;94588.22;5015083;28;20057;-49
2021/05/05 00:57:48;;;;;;;4.78;2.55;;;;;;;11.39;59.05;94595.81;5013368;28;20356;-49
2021/05/05 01:00:19;;;;;;;3.97;2.55;;;;;;;11.33;59.26;94591.88;5012967;28;20077;-51
2021/05/05 01:02:46;;;;;;;2.60;1.80;;;;;;;11.36;59.00;94591.91;5029490;28;20045;-49
2021/05/05 01:05:14;;;;;;;3.10;2.47;;;;;;;11.48;58.92;94587.41;5013177;28;20051;-48
2021/05/05 01:07:42;;;;;;;4.20;2.25;;;;;;;11.52;59.00;94588.22;5012311;28;20471;-51
2021/05/05 01:10:12;;;;;;;3.85;2.65;;;;;;;11.38;59.16;94584.19;5011917;28;20249;-47
2021/05/05 01:12:41;;;;;;;4.57;2.63;;;;;;;11.24;60.00;94573.19;5014435;28;20077;-45
2021/05/05 01:15:10;;;;;;;11.02;3.20;;;;;;;11.37;59.57;94581.84;5013572;28;20061;-48
2021/05/05 01:17:37;;;;;;;3.95;2.85;;;;;;;11.40;60.56;94587.31;5013873;28;20058;-49
2021/05/05 01:20:07;;;;;;;3.53;2.55;;;;;;;11.67;59.28;94592.63;5013020;28;20077;-51
2021/05/05 01:22:33;;;;;;;3.05;2.55;;;;;;;11.81;58.82;94587.34;5013962;28;20108;-49
2021/05/05 01:25:00;;;;;;;3.63;2.75;;;;;;;12.05;58.33;94593.41;5028273;28;20400;-48
2021/05/05 01:27:27;;;;;;;2.95;2.33;;;;;;;11.55;59.47;94587.47;5029281;28;20056;-48
2021/05/05 01:29:54;;;;;;;3.83;2.40;;;;;;;11.47;60.30;94592.00;5012556;28;20415;-49
2021/05/05 01:32:21;;;;;;;3.88;2.83;;;;;;;11.31;61.35;94584.13;5013605;28;20050;-48
2021/05/05 01:34:48;;;;;;;4.00;2.90;;;;;;;11.05;62.62;94589.59;5013852;28;20072;-50
2021/05/05 01:37:15;;;;;;;3.90;2.90;;;;;;;11.02;63.35;94587.63;5024157;28;20063;-48
2021/05/05 01:39:42;;;;;;;5.63;3.40;;;;;;;10.94;63.56;94584.81;5032422;28;20136;-48
2021/05/05 01:42:10;;;;;;;4.30;3.53;;;;;;;10.94;64.39;94597.56;5033743;28;20053;-47
2021/05/05 01:44:39;;;;;;;5.00;3.58;;;;;;;10.67;65.66;94594.13;5032053;28;20502;-49
2021/05/05 01:47:13;;;;;;;6.72;3.88;;;;;;;10.72;65.69;94575.66;5013142;28;20061;-50
2021/05/05 01:49:48;;;;;;;5.65;3.80;;;;;;;10.72;66.09;94591.09;5013037;28;20113;-47
2021/05/05 01:52:20;;;;;;;4.63;3.80;;;;;;;10.64;66.59;94584.03;5013208;28;20050;-46
2021/05/05 01:54:48;;;;;;;4.32;3.40;;;;;;;10.64;66.80;94584.03;5011795;28;20100;-47
2021/05/05 01:57:37;;;;;;;6.45;4.00;;;;;;;10.50;67.27;94576.50;5011914;28;20107;-48
2021/05/05 02:00:19;;;;;;;4.57;3.50;;;;;;;10.46;67.47;94581.88;5013308;28;20053;-47
2021/05/05 02:02:53;;;;;;;6.25;3.70;;;;;;;10.64;66.95;94575.94;5028351;28;20085;-47
2021/05/05 02:05:28;;;;;;;5.57;3.78;;;;;;;10.43;67.74;94585.28;5012974;28;20049;-47
2021/05/05 02:08:04;;;;;;;5.28;4.28;;;;;;;10.42;68.00;94575.59;5011965;28;20440;-47
2021/05/05 02:10:31;;;;;;;5.38;3.70;;;;;;;10.79;66.61;94574.19;5011960;28;20056;-46
2021/05/05 02:12:58;;;;;;;4.57;3.65;;;;;;;10.61;67.03;94574.72;5012919;28;20069;-48
2021/05/05 02:15:25;;;;;;;5.75;3.92;;;;;;;10.70;66.99;94572.53;5012699;28;20053;-48
2021/05/05 02:17:58;;;;;;;5.32;4.10;;;;;;;10.54;68.46;94577.34;5031791;28;20085;-49
2021/05/05 02:20:25;;;;;;;4.22;3.50;;;;;;;10.39;68.33;94570.94;5047667;28;20156;-47
2021/05/05 02:22:54;;;;;;;4.88;3.50;;;;;;;10.59;68.11;94565.41;5047651;28;20041;-48
2021/05/05 02:25:20;;;;;;;5.50;3.75;;;;;;;10.37;68.13;94557.00;5033351;28;20108;-48
2021/05/05 02:27:50;;;;;;;4.85;3.60;;;;;;;10.36;68.31;94552.72;5012774;28;20049;-46
2021/05/05 02:30:30;;;;;;;4.53;3.60;;;;;;;10.33;68.37;94550.75;5011651;28;20128;-47
2021/05/05 02:33:02;;;;;;;5.20;4.10;;;;;;;10.33;68.10;94545.34;5012571;28;20042;-46
2021/05/05 02:35:28;;;;;;;5.47;4.00;;;;;;;10.33;68.29;94537.22;5027409;28;20478;-46
2021/05/05 02:37:58;;;;;;;5.07;3.90;;;;;;;10.40;67.98;94541.97;5029759;28;20045;-47
2021/05/05 02:40:25;;;;;;;4.97;3.85;;;;;;;10.56;67.59;94528.28;5032216;28;20053;-47
2021/05/05 02:42:54;;;;;;;5.32;3.90;;;;;;;10.67;67.15;94531.91;5047586;28;20050;-49
2021/05/05 02:45:20;;;;;;;5.05;3.95;;;;;;;10.39;67.97;94535.78;5023813;28;20057;-48
2021/05/05 02:47:47;;;;;;;5.97;3.80;;;;;;;10.27;68.58;94536.78;5012176;28;20072;-47
2021/05/05 02:50:14;;;;;;;5.95;3.97;;;;;;;10.39;68.46;94526.88;5010955;28;20495;-47
2021/05/05 02:52:40;;;;;;;6.00;3.70;;;;;;;10.36;68.29;94522.97;5012863;28;20057;-48
2021/05/05 02:55:10;;;;;;;12.50;4.00;;;;;;;10.85;66.71;94519.38;5026864;28;20046;-46
2021/05/05 02:57:39;;;;;;;5.88;3.90;;;;;;;10.77;66.89;94523.16;5026449;28;20042;-48
2021/05/05 03:00:08;;;;;;;6.15;3.92;;;;;;;10.64;67.65;94519.13;5011979;28;20077;-49
2021/05/05 03:02:34;;;;;;;5.25;4.07;;;;;;;10.83;67.58;94510.88;5011776;28;20049;-48
2021/05/05 03:05:03;;;;;;;5.47;3.95;;;;;;;10.56;68.42;94522.88;5012116;28;20129;-48
2021/05/05 03:07:30;;;;;;;4.82;4.10;;;;;;;10.22;71.82;94520.06;5012214;28;20069;-49
2021/05/05 03:09:57;;;;;;;5.55;3.92;;;;;;;10.05;72.21;94519.44;5011679;28;20543;-52
2021/05/05 03:12:23;;;;;;;5.55;4.20;;;;;;;10.02;71.92;94501.25;5011854;28;20111;-49
2021/05/05 03:14:50;;;;;;;7.43;3.95;;;;;;;10.04;73.41;94493.56;5011146;28;20458;-50
2021/05/05 03:17:16;;;;;;;5.82;4.05;;;;;;;9.98;73.81;94494.22;5031355;28;20076;-50
2021/05/05 03:19:44;;;;;;;6.57;4.15;;;;;;;9.86;74.16;94494.44;5031307;28;20187;-49
2021/05/05 03:22:11;;;;;;;5.50;3.90;;;;;;;9.88;73.54;94490.22;5031454;28;20049;-48
2021/05/05 03:24:37;;;;;;;5.32;4.00;;;;;;;9.87;75.56;94477.84;5022616;28;20046;-48
2021/05/05 03:27:05;;;;;;;5.35;4.20;;;;;;;10.20;73.23;94484.50;5011577;28;20108;-49
2021/05/05 03:29:32;;;;;;;6.60;4.10;;;;;;;10.32;72.89;94488.94;5011645;28;20426;-45
2021/05/05 03:31:59;;;;;;;5.72;4.63;;;;;;;9.83;74.39;94488.59;5011572;28;20503;-46
2021/05/05 03:34:27;;;;;;;6.40;4.13;;;;;;;10.12;73.86;94489.03;5010989;28;20104;-46
2021/05/05 03:36:53;;;;;;;6.35;5.32;;;;;;;10.19;74.29;94486.44;5009813;28;20049;-49
2021/05/05 03:39:20;;;;;;;6.28;4.13;;;;;;;10.02;74.52;94490.44;5011364;28;20507;-46
2021/05/05 03:41:46;;;;;;;5.53;4.05;;;;;;;10.05;75.47;94484.31;5026648;28;20045;-49
2021/05/05 03:44:13;;;;;;;7.50;5.20;;;;;;;10.41;74.96;94490.25;5011782;28;20084;-47
2021/05/05 03:46:40;;;;;;;6.03;4.85;;;;;;;10.18;74.91;94486.81;5011161;28;20081;-47
2021/05/05 03:49:07;;;;;;;5.53;4.57;;;;;;;10.44;74.23;94486.81;5011313;28;20058;-47
2021/05/05 03:51:33;;;;;;;4.82;4.07;;;;;;;10.40;73.40;94485.97;5011435;28;20045;-46
2021/05/05 03:54:00;;;;;;;7.05;4.78;;;;;;;10.45;73.61;94485.66;5011232;28;20064;-46
2021/05/05 03:56:27;;;;;;;5.50;4.72;;;;;;;10.24;75.76;94490.75;5011492;28;20054;-47
2021/05/05 03:58:53;;;;;;;5.75;4.80;;;;;;;10.02;75.80;94489.66;5011293;28;20061;-49
2021/05/05 04:01:20;;;;;;;5.78;4.43;;;;;;;9.78;77.39;94493.50;5011478;28;20112;-45
2021/05/05 04:03:46;;;;;;;6.25;5.07;;;;;;;9.53;78.77;94499.31;5011306;28;20042;-49
2021/05/05 04:06:13;;;;;;;6.40;5.38;;;;;;;9.52;79.50;94491.56;5011880;28;20058;-46
2021/05/05 04:08:39;;;;;;;5.18;4.43;;;;;;;9.33;79.62;94495.88;5011037;28;20108;-49
2021/05/05 04:11:06;;;;;;;6.78;5.25;;;;;;;9.46;80.02;94498.41;5011189;28;20065;-47
2021/05/05 04:13:33;;;;;;;6.60;5.28;;;;;;;9.28;80.43;94498.88;5011497;28;20053;-50
2021/05/05 04:16:18;;;;;;;6.75;5.53;;;;;;;9.22;81.07;94504.91;5011211;28;20038;-51
2021/05/05 04:19:03;;;;;;;8.23;6.05;;;;;;;9.17;81.58;94499.81;5011013;28;20333;-46
2021/05/05 04:21:49;;;;;;;8.25;7.45;;;;;;;9.12;82.66;94498.97;5011134;28;20034;-49
2021/05/05 04:24:33;;;;;;;7.50;6.10;;;;;;;9.03;82.80;94519.97;5011462;28;20025;-44
2021/05/05 04:27:00;;;;;;;5.85;4.80;;;;;;;8.85;81.80;94533.13;5010669;28;20129;-46
2021/05/05 04:29:26;;;;;;;5.65;3.75;;;;;;;8.51;82.22;94529.34;5011103;28;20061;-48
2021/05/05 04:31:53;;;;;;;4.15;2.72;;;;;;;8.00;82.16;94539.34;5011214;28;20443;-45
2021/05/05 04:34:20;;;;;;;3.58;2.60;;;;;;;7.83;81.58;94546.66;5011137;28;20116;-44
2021/05/05 04:36:47;;;;;;;3.75;2.50;;;;;;;7.60;82.02;94556.44;5011164;28;20463;-48
2021/05/05 04:39:14;;;;;;;4.57;2.65;;;;;;;7.23;83.85;94560.13;5010956;28;20100;-44
2021/05/05 04:41:40;;;;;;;3.35;2.40;;;;;;;7.23;85.47;94576.28;5010924;28;20427;-49
2021/05/05 04:44:11;;;;;;;2.47;1.80;;;;;;;6.62;83.92;94579.19;5010757;28;20100;-49
2021/05/05 04:46:37;;;;;;;3.78;2.13;;;;;;;6.45;84.76;94584.81;5014427;28;20061;-46
2021/05/05 04:49:04;;;;;;;3.45;1.70;;;;;;;6.36;85.53;94595.69;5014449;28;20431;-51
2021/05/05 04:51:30;;;;;;;5.47;1.67;;;;;;;6.13;86.24;94589.22;5014718;28;20065;-45
2021/05/05 04:53:57;;;;;;;3.83;1.75;;;;;;;6.01;86.81;94595.34;5029275;28;20042;-47
2021/05/05 04:56:24;;;;;;;5.03;1.92;;;;;;;6.07;87.38;94607.44;5015058;28;20073;-46
2021/05/05 04:58:59;;;;;;;2.72;1.48;;;;;;;6.11;86.13;94608.38;5020871;28;20088;-51
2021/05/05 05:01:26;;;;;;;3.30;1.63;;;;;;;5.93;85.53;94620.44;5034336;28;20107;-50
2021/05/05 05:03:53;;;;;;;5.03;1.80;;;;;;;5.94;86.72;94620.06;5033747;28;20088;-50
2021/05/05 05:06:19;;;;;;;4.63;1.80;;;;;;;6.06;86.48;94638.09;5025822;28;20058;-51
2021/05/05 05:08:46;;;;;;;5.45;1.60;;;;;;;5.76;85.46;94642.84;5014102;28;20442;-47
2021/05/05 05:11:12;;;;;;;4.22;1.92;;;;;;;5.74;87.34;94650.44;5039681;28;20048;-49
2021/05/05 05:13:39;;;;;;;4.57;1.90;;;;;;;5.74;88.21;94655.81;5048155;28;20061;-47
2021/05/05 05:16:06;;;;;;;5.75;2.10;;;;;;;5.84;88.84;94664.22;5014107;28;20047;-49
2021/05/05 05:18:33;;;;;;;4.35;2.00;;;;;;;5.95;87.58;94661.16;5013493;28;20081;-49
2021/05/05 05:21:04;;;;;;;7.75;1.95;;;;;;;5.91;86.86;94669.03;5014543;28;20112;-47
2021/05/05 05:23:31;;;;;;;5.35;2.40;;;;;;;5.86;88.34;94674.63;5013705;28;20042;-47
2021/05/05 05:25:58;;;;;;;5.03;1.98;;;;;;;6.00;89.11;94677.03;5013002;28;20050;-45
2021/05/05 05:28:25;;;;;;;4.03;1.67;;;;;;;5.67;86.55;94669.00;5013747;28;20060;-47
2021/05/05 05:30:52;;;;;;;4.47;1.88;;;;;;;5.78;86.38;94681.66;5013707;28;20061;-47
2021/05/05 05:33:19;;;;;;;3.38;1.77;;;;;;;5.47;88.31;94681.34;5013683;28;20050;-49
2021/05/05 05:35:46;;;;;;;6.35;2.20;;;;;;;5.40;87.85;94689.94;5029043;28;20096;-47
2021/05/05 05:38:12;;;;;;;4.13;1.70;;;;;;;5.62;88.31;94672.66;5025176;28;20107;-46
2021/05/05 05:40:40;;;;;;;6.90;2.03;;;;;;;5.59;86.65;94663.38;5033368;28;20533;-50
2021/05/05 05:43:06;;;;;;;4.10;2.05;;;;;;;5.70;88.43;94665.66;5032286;28;20045;-46
2021/05/05 05:45:33;;;;;;;3.35;1.67;;;;;;;5.79;87.09;94663.66;5032259;28;20126;-48
2021/05/05 05:47:59;;;;;;;4.65;2.00;;;;;;;5.65;87.06;94663.94;5032800;28;20118;-48
2021/05/05 05:50:26;;;;;;;5.47;1.50;;;;;;;5.86;86.61;94682.69;5031344;28;20471;-48
2021/05/05 05:52:53;;;;;;;4.63;1.70;;;;;;;5.72;85.21;94676.81;5028182;28;20046;-47
2021/05/05 05:55:20;;;;;;;3.70;2.00;;;;;;;5.67;86.64;94680.50;5020905;28;20061;-46
2021/05/05 05:57:49;;;;;;;2.88;1.50;;;;;;;5.63;84.71;94685.75;5031452;28;20045;-50
2021/05/05 06:00:18;;;;;;;2.30;1.33;;;;;;;5.47;85.58;94689.38;5032529;28;20151;-45
2021/05/05 06:02:45;;;;;;;3.80;1.48;;;;;;;5.46;84.84;94712.75;5032451;28;20046;-47
2021/05/05 06:05:12;;;;;;;3.90;1.55;;;;;;;5.55;85.88;94699.25;5024346;28;20053;-49
2021/05/05 06:07:39;;;;;;;2.88;1.30;;;;;;;5.71;85.24;94707.47;5027139;28;20042;-45
2021/05/05 06:10:08;;;;;;;4.45;1.80;;;;;;;5.91;84.50;94711.19;5043382;28;20053;-44
2021/05/05 06:12:35;;;;;;;2.88;1.55;;;;;;;5.52;83.61;94724.03;5046003;28;20042;-48
2021/05/05 06:15:04;;;;;;;3.05;1.30;;;;;;;5.15;85.69;94731.91;5040020;28;20060;-44
2021/05/05 06:17:31;;;;;;;9.23;1.80;;;;;;;5.14;86.94;94741.09;5039381;28;20076;-52
2021/05/05 06:19:57;;;;;;;3.78;1.70;;;;;;;5.35;88.26;94752.59;5043910;28;20045;-50
2021/05/05 06:22:24;;;;;;;3.35;1.40;;;;;;;5.39;85.10;94753.53;5039223;28;20098;-46
2021/05/05 06:24:50;;;;;;;2.13;1.20;;;;;;;5.29;86.02;94761.16;5032294;28;20591;-45
2021/05/05 06:27:17;;;;;;;3.38;1.63;;;;;;;5.32;85.78;94782.75;5032172;28;20057;-48
2021/05/05 06:29:43;;;;;;;2.70;1.17;;;;;;;5.42;87.01;94797.66;5032088;28;20057;-47
2021/05/05 06:32:10;;;;;;;2.25;1.20;;;;;;;5.44;86.98;94797.34;5034833;28;20120;-52
2021/05/05 06:34:38;;;;;;;4.70;1.27;;;;;;;5.62;85.31;94804.13;5032159;28;20042;-51
2021/05/05 06:37:04;;;;;;;2.63;1.10;;;;;;;5.23;86.15;94802.69;5030539;28;20045;-49
2021/05/05 06:39:32;;;;;;;3.28;1.27;;;;;;;5.15;88.04;94809.69;5030440;28;20368;-49
2021/05/05 06:41:59;;;;;;;1.75;0.65;;;;;;;4.61;86.45;94822.84;5030309;28;20041;-51
2021/05/05 06:44:26;;;;;;;2.53;0.88;;;;;;;4.54;88.27;94827.94;5034583;28;20045;-50
2021/05/05 06:46:56;;;;;;;2.08;0.80;;;;;;;4.37;86.26;94823.41;5042482;28;20131;-48
2021/05/05 06:49:23;;;;;;;1.77;0.88;;;;;;;4.22;87.30;94827.38;5030235;28;20459;-49
2021/05/05 06:51:51;;;;;;;3.00;0.90;;;;;;;4.45;88.71;94828.75;5027758;28;20057;-49
2021/05/05 06:54:18;;;;;;;1.38;0.90;;;;;;;4.63;88.96;94826.00;5044402;28;20676;-49
2021/05/05 06:56:45;;;;;;;1.50;0.98;;;;;;;4.55;85.97;94824.94;5025895;28;20064;-48
2021/05/05 06:59:12;;;;;;;2.28;0.82;;;;;;;4.58;85.91;94810.09;5036272;28;20053;-50
2021/05/05 07:01:39;;;;;;;1.55;0.88;;;;;;;4.51;87.21;94799.09;5031609;28;20439;-46
2021/05/05 07:04:08;;;;;;;2.45;1.00;;;;;;;4.48;87.26;94799.75;5032214;28;20072;-46
2021/05/05 07:06:37;;;;;;;2.20;1.10;;;;;;;4.73;87.11;94793.50;5014593;28;20100;-48
2021/05/05 07:09:04;;;;;;;2.65;1.30;;;;;;;5.08;88.07;94786.06;5011267;28;20053;-49
2021/05/05 07:11:35;;;;;;;2.03;1.02;;;;;;;5.13;88.50;94806.53;5012308;28;20049;-49
2021/05/05 07:14:02;;;;;;;1.77;0.80;;;;;;;4.86;85.20;94803.19;5023221;28;20037;-48
2021/05/05 07:16:29;;;;;;;1.42;0.98;;;;;;;5.07;87.26;94802.44;5031121;28;20056;-49
2021/05/05 07:18:56;;;;;;;2.05;0.95;;;;;;;4.84;85.12;94797.41;5031655;28;20057;-49
2021/05/05 07:21:24;;;;;;;2.15;1.00;;;;;;;5.34;87.05;94801.97;5027837;28;20126;-49
2021/05/05 07:23:51;;;;;;;2.70;1.05;;;;;;;4.93;85.45;94798.13;5023881;28;20057;-49
2021/05/05 07:26:18;;;;;;;1.60;0.98;;;;;;;5.09;84.53;94801.03;5031512;28;20391;-49
2021/05/05 07:28:46;;;;;;;2.33;0.85;;;;;;;5.08;84.62;94790.63;5030750;28;20053;-49
2021/05/05 07:31:13;;;;;;;3.25;1.08;;;;;;;5.50;85.91;94796.81;5032185;28;20140;-52
2021/05/05 07:33:40;;;;;;;3.58;1.10;;;;;;;5.58;83.73;94793.28;5035378;28;20483;-50
2021/05/05 07:36:14;;;;;;;1.30;0.88;;;;;;;5.34;84.28;94799.31;5026265;28;20121;-49
2021/05/05 07:49:10;;;;;;;4.20;1.50;;;;;;;5.99;87.84;94815.88;5028176;28;20053;-50
2021/05/05 07:51:37;;;;;;;3.63;1.42;;;;;;;5.82;85.74;94819.47;5030464;28;20087;-50
2021/05/05 07:54:03;;;;;;;1.58;0.80;;;;;;;5.59;83.10;94815.56;5020406;28;20041;-52
2021/05/05 07:56:29;;;;;;;2.40;1.58;;;;;;;5.94;86.08;94812.59;5030160;28;20034;-50
2021/05/05 07:59:00;;;;;;;2.92;1.15;;;;;;;5.83;84.00;94807.59;5041236;28;20556;-48
2021/05/05 08:01:30;;;;;;;2.22;0.98;;;;;;;5.86;84.59;94820.38;5027884;28;20041;-49
2021/05/05 08:03:59;;;;;;;1.45;1.05;;;;;;;6.21;84.85;94819.31;5017812;28;20060;-51
2021/05/05 08:06:27;;;;;;;1.50;0.85;;;;;;;6.03;83.99;94810.63;5029068;28;20054;-49
2021/05/05 08:08:55;;;;;;;1.55;0.82;;;;;;;5.98;81.41;94818.88;5031705;28;20171;-53
2021/05/05 08:11:24;;;;;;;1.88;0.90;;;;;;;6.16;81.59;94803.38;5029784;28;20417;-51
2021/05/05 08:13:52;;;;;;;0.77;0.70;;;;;;;6.07;83.44;94798.88;5026850;28;20049;-49
2021/05/05 08:16:20;;;;;;;1.15;0.68;;;;;;;6.17;80.65;94811.09;5023497;28;20082;-48
2021/05/05 08:18:47;;;;;;;1.05;0.60;;;;;;;6.55;82.10;94821.59;5046792;28;20111;-50
2021/05/05 08:21:17;;;;;;;1.13;0.88;;;;;;;6.42;81.72;94838.03;5073217;22;20063;31
2021/05/05 08:23:44;;;;;;;0.82;0.70;;;;;;;6.26;82.34;94846.72;5008463;28;20042;-50
2021/05/05 08:26:10;;;;;;;1.23;0.57;;;;;;;6.20;81.56;94858.78;4996350;28;20124;-47
2021/05/05 08:28:38;;;;;;;3.08;0.82;;;;;;;6.65;82.88;94863.41;4998531;28;20054;-48
2021/05/05 08:31:05;;;;;;;1.73;0.70;;;;;;;6.68;81.31;94878.88;5015142;28;20062;-47
2021/05/05 08:33:32;;;;;;;2.25;0.80;;;;;;;6.50;81.85;94875.59;4996454;28;20054;-45
2021/05/05 08:35:59;;;;;;;3.00;0.70;;;;;;;6.22;81.36;94875.38;5001050;28;20047;-51
2021/05/05 08:38:26;;;;;;;0.80;0.60;;;;;;;6.08;83.09;94875.66;4966733;28;20415;-49
2021/05/05 08:40:52;;;;;;;1.25;0.80;;;;;;;6.58;82.49;94865.84;4994549;28;20054;-49
2021/05/05 08:43:19;;;;;;;1.45;0.80;;;;;;;6.41;80.79;94868.72;4994794;28;20042;-49
2021/05/05 08:45:47;;;;;;;2.00;0.77;;;;;;;6.43;80.39;94878.00;4986639;28;20385;-48
2021/05/05 08:48:18;;;;;;;1.40;0.70;;;;;;;6.60;80.95;94855.56;4994667;28;20118;-47
2021/05/05 08:50:45;;;;;;;1.85;0.73;;;;;;;6.21;80.96;94855.00;4991807;28;20404;-47
2021/05/05 08:53:11;;;;;;;0.80;0.70;;;;;;;6.49;80.97;94859.78;4992890;28;20050;-53
2021/05/05 08:55:38;;;;;;;1.48;0.90;;;;;;;6.51;81.00;94852.97;4992597;28;20108;-46
2021/05/05 08:58:05;;;;;;;7.47;1.70;;;;;;;6.31;80.75;94854.59;4993170;28;20054;-46
2021/05/05 09:00:38;;;;;;;1.25;0.80;;;;;;;6.36;81.06;94869.69;4993947;28;20050;-49
2021/05/05 09:03:07;;;;;;;0.98;0.88;;;;;;;6.13;81.49;94869.28;5010128;28;20070;-49
2021/05/05 09:05:49;;;;;;;2.05;0.88;;;;;;;6.45;82.77;94865.03;4986993;28;20518;-49
2021/05/05 09:08:17;;;;;;;1.13;0.90;;;;;;;6.85;82.05;94874.41;4983413;28;20791;-50
2021/05/05 09:10:56;;;;;;;1.23;0.85;;;;;;;7.02;81.92;94876.91;4994756;28;20050;-47
2021/05/05 09:13:48;;;;;;;1.90;0.90;;;;;;;7.05;81.01;94868.16;5010593;28;20115;-50
2021/05/05 09:16:17;;;;;;;1.00;0.82;;;;;;;6.98;79.59;94866.03;5014757;28;20049;-48
2021/05/05 09:19:08;;;;;;;1.35;0.90;;;;;;;7.01;79.37;94872.63;5004588;28;20068;-47
2021/05/05 09:21:40;;;;;;;2.42;1.02;;;;;;;6.55;79.08;94863.81;4998080;28;20049;-52
2021/05/05 09:24:27;;;;;;;2.28;1.38;;;;;;;6.65;81.58;94874.16;4995473;28;20397;-52
2021/05/05 09:26:57;;;;;;;2.78;1.30;;;;;;;6.20;83.79;94892.91;4978128;28;20134;-49
2021/05/05 09:29:45;;;;;;;2.22;1.30;;;;;;;6.09;85.23;94884.50;4987680;28;20420;-51
2021/05/05 09:32:13;;;;;;;2.03;1.38;;;;;;;5.63;85.16;94888.91;4993080;28;20467;-47
2021/05/05 09:34:41;;;;;;;4.55;1.75;;;;;;;5.79;86.44;94892.59;4980197;28;20778;-50
2021/05/05 09:37:10;;;;;;;2.55;1.60;;;;;;;5.72;84.36;94886.16;4988550;28;20053;-49
2021/05/05 09:39:39;;;;;;;4.38;2.00;;;;;;;5.80;87.22;94891.47;4995007;28;20070;-47
2021/05/05 09:42:28;;;;;;;3.47;1.88;;;;;;;5.76;86.29;94885.19;5004625;28;20046;-47
2021/05/05 09:44:59;;;;;;;3.60;2.03;;;;;;;5.91;85.69;94886.47;4993630;28;20057;-51
2021/05/05 09:47:54;;;;;;;3.42;1.90;;;;;;;6.07;84.72;94884.03;4990074;28;20132;-48
2021/05/05 09:50:31;;;;;;;3.50;1.55;;;;;;;6.11;84.14;94882.28;4989635;28;20065;-48
2021/05/05 09:53:13;;;;;;;5.00;1.75;;;;;;;6.30;84.33;94895.19;5009047;28;20042;-48
2021/05/05 09:55:39;;;;;;;2.22;1.45;;;;;;;6.39;83.85;94890.53;4995018;28;20046;-52
2021/05/05 09:58:24;;;;;;;3.28;1.67;;;;;;;6.96;81.58;94889.78;4986158;28;20482;-51
2021/05/05 10:01:15;;;;;;;2.05;1.30;;;;;;;6.80;80.90;94886.19;5016624;28;20154;-47
2021/05/05 10:03:47;;;;;;;2.15;1.55;;;;;;;6.65;80.30;94894.88;4993119;28;20058;-48
2021/05/05 10:06:24;;;;;;;3.00;2.15;;;;;;;6.80;81.92;94883.50;4988748;28;20051;-47
2021/05/05 10:09:04;;;;;;;4.15;2.17;;;;;;;6.87;82.04;94893.69;4996156;28;20133;-47
2021/05/05 10:11:36;;;;;;;3.92;2.03;;;;;;;6.85;82.24;94904.75;4996122;28;20058;-49
2021/05/05 10:14:14;;;;;;;2.33;1.80;;;;;;;6.83;83.00;94896.28;4994757;28;20081;-48
2021/05/05 10:16:42;;;;;;;2.08;1.73;;;;;;;6.47;83.34;94894.28;4985213;28;20133;-48
2021/05/05 10:19:15;;;;;;;3.90;2.20;;;;;;;6.69;83.69;94898.47;4991496;28;20466;-50
2021/05/05 10:21:48;;;;;;;1.02;0.88;;;;;;;6.55;77.64;94920.25;4992212;28;20046;-48
2021/05/05 10:24:14;;;;;;;1.13;0.90;;;;;;;6.63;77.17;94914.03;4991591;28;20046;-48
2021/05/05 10:26:42;;;;;;;1.40;1.00;;;;;;;6.83;78.57;94898.19;4994952;28;20110;-47
2021/05/05 10:29:09;;;;;;;1.45;1.00;;;;;;;6.98;79.11;94895.59;4989180;28;20054;-52
2021/05/05 10:31:37;;;;;;;1.50;1.00;;;;;;;7.19;81.19;94902.81;4991878;28;20050;-49
2021/05/05 10:34:15;;;;;;;2.22;0.90;;;;;;;6.70;78.62;94911.59;5003542;28;20050;-49
2021/05/05 10:36:47;;;;;;;1.20;0.90;;;;;;;6.44;80.08;94949.44;4997627;28;20133;-48
2021/05/05 10:39:20;;;;;;;1.15;0.70;;;;;;;6.25;80.28;94927.66;4994887;28;20440;-46
2021/05/05 10:42:13;;;;;;;2.33;1.30;;;;;;;6.38;83.10;94961.50;4993165;28;20053;-48
2021/05/05 10:44:42;;;;;;;4.50;2.00;;;;;;;5.35;84.08;94987.84;5002031;28;20686;-50
2021/05/05 10:47:31;;;;;;;2.53;1.33;;;;;;;3.97;85.19;94981.56;4985993;28;20047;-47
2021/05/05 10:49:59;;;;;;;5.57;1.80;;;;;;;3.81;87.30;94983.13;4992157;28;20125;-46
2021/05/05 10:52:27;;;;;;;7.93;3.10;;;;;;;3.82;88.76;94984.69;4994121;28;20137;-48
2021/05/05 10:54:55;;;;;;;5.38;2.60;;;;;;;3.87;86.67;94992.56;4993733;28;20523;-48
2021/05/05 10:57:24;;;;;;;6.68;2.58;;;;;;;3.96;87.36;94996.84;4986638;28;20097;-47
2021/05/05 11:00:10;;;;;;;7.80;3.65;;;;;;;4.01;87.93;95000.47;4997194;28;20137;-45
2021/05/05 11:02:40;;;;;;;5.65;2.80;;;;;;;4.09;86.96;95005.81;4992105;28;20042;-51
2021/05/05 11:05:25;;;;;;;3.85;1.90;;;;;;;4.12;84.56;94996.34;4992136;28;20042;-49
2021/05/05 11:07:51;;;;;;;4.70;1.63;;;;;;;4.16;84.50;95011.50;4989427;28;20054;-49
2021/05/05 11:10:37;;;;;;;3.70;1.30;;;;;;;4.24;82.78;95001.88;5009473;28;20053;-50
2021/05/05 11:13:19;;;;;;;2.58;1.40;;;;;;;4.49;81.21;94988.81;4993659;28;20801;-49
2021/05/05 11:15:46;;;;;;;2.70;1.30;;;;;;;4.60;81.79;94998.09;4996680;28;20058;-49
2021/05/05 11:18:24;;;;;;;1.25;1.13;;;;;;;4.66;80.77;94996.84;4982189;28;20050;-47
2021/05/05 11:20:53;;;;;;;5.63;1.90;;;;;;;4.97;82.80;95001.97;4996646;28;20065;-46
2021/05/05 11:23:43;;;;;;;3.72;1.80;;;;;;;5.15;81.81;94992.78;4991263;28;20129;-49
2021/05/05 11:26:24;;;;;;;5.32;1.48;;;;;;;5.15;80.63;95002.72;4996210;28;20060;-51
2021/05/05 11:28:58;;;;;;;4.75;1.63;;;;;;;5.59;80.06;95004.16;4992242;28;20159;-48
2021/05/05 11:31:49;;;;;;;6.57;1.83;;;;;;;5.61;78.55;95017.25;4991389;28;20064;-46
2021/05/05 11:34:19;;;;;;;5.70;1.58;;;;;;;5.36;78.61;95024.25;4989133;28;20508;-49
2021/05/05 11:36:59;;;;;;;4.85;1.58;;;;;;;5.34;80.68;95010.41;4976043;28;20046;-48
2021/05/05 11:39:33;;;;;;;3.63;1.70;;;;;;;5.35;77.34;95003.94;4994061;28;20076;-48
2021/05/05 11:42:03;;;;;;;5.03;1.60;;;;;;;5.36;78.59;94992.09;4992256;28;20063;-49
2021/05/05 11:44:37;;;;;;;3.30;1.92;;;;;;;5.49;78.39;94988.44;4992472;28;20043;-48
2021/05/05 11:47:09;;;;;;;3.22;1.80;;;;;;;5.66;76.75;94992.13;4990129;28;20172;-48
2021/05/05 11:49:37;;;;;;;4.00;1.88;;;;;;;6.14;77.02;95005.13;4992349;28;20050;-47
2021/05/05 11:52:19;;;;;;;5.82;1.80;;;;;;;6.38;77.92;95001.81;4994078;28;20054;-48
2021/05/05 11:54:48;;;;;;;4.47;1.98;;;;;;;6.72;76.04;95002.63;4999028;28;20056;-47
2021/05/05 11:57:16;;;;;;;5.20;2.75;;;;;;;7.81;76.08;94989.75;5002128;28;20076;-45
2021/05/05 11:59:44;;;;;;;3.63;1.77;;;;;;;6.95;73.82;94990.38;4996055;28;20046;-48
2021/05/05 12:02:11;;;;;;;4.20;1.85;;;;;;;6.98;76.79;94997.78;4999274;28;20057;-47